sensor_id;sensor_type;location;lat;lon;timestamp;pressure;altitude;pressure_sealevel;temperature;humidity
44198;BME280;30157;55.512;37.764;2023-02-28T00:01:14;100551.91;;;-9.12;85.42
44198;BME280;30157;55.512;37.764;2023-02-28T00:03:41;100552.94;;;-9.09;85.09
44198;BME280;30157;55.512;37.764;2023-02-28T00:06:07;100400.47;;;-9.88;85.32
44198;BME280;30157;55.512;37.764;2023-02-28T00:08:35;100535.09;;;-9.13;85.32
44198;BME280;30157;55.512;37.764;2023-02-28T00:11:02;100405.63;;;-9.87;85.13
44198;BME280;30157;55.512;37.764;2023-02-28T00:13:28;100536.44;;;-9.16;85.65
44198;BME280;30157;55.512;37.764;2023-02-28T00:16:05;100289.53;;;-10.53;85.65
44198;BME280;30157;55.512;37.764;2023-02-28T00:18:31;100448.56;;;-9.65;85.55
44198;BME280;30157;55.512;37.764;2023-02-28T00:20:58;100466.03;;;-9.56;85.56
44198;BME280;30157;55.512;37.764;2023-02-28T00:23:24;100520.09;;;-9.21;85.31
44198;BME280;30157;55.512;37.764;2023-02-28T00:25:50;100501.44;;;-9.34;85.29
44198;BME280;30157;55.512;37.764;2023-02-28T00:28:15;100335.16;;;-10.28;85.21
44198;BME280;30157;55.512;37.764;2023-02-28T00:30:41;100494.47;;;-9.47;85.53
44198;BME280;30157;55.512;37.764;2023-02-28T00:33:07;100468.66;;;-9.65;85.38
44198;BME280;30157;55.512;37.764;2023-02-28T00:35:32;100361.13;;;-10.27;86.12
44198;BME280;30157;55.512;37.764;2023-02-28T00:37:58;100507.59;;;-9.40;85.96
44198;BME280;30157;55.512;37.764;2023-02-28T00:40:27;100473.31;;;-9.59;85.67
44198;BME280;30157;55.512;37.764;2023-02-28T00:42:52;100352.31;;;-10.33;85.69
44198;BME280;30157;55.512;37.764;2023-02-28T00:45:18;100497.75;;;-9.48;86.22
44198;BME280;30157;55.512;37.764;2023-02-28T00:47:44;100461.88;;;-9.66;85.89
44198;BME280;30157;55.512;37.764;2023-02-28T00:50:11;100435.69;;;-9.78;85.92
44198;BME280;30157;55.512;37.764;2023-02-28T00:52:37;100494.47;;;-9.47;86.16
44198;BME280;30157;55.512;37.764;2023-02-28T00:55:06;100494.88;;;-9.42;86.20
44198;BME280;30157;55.512;37.764;2023-02-28T00:57:32;100456.34;;;-9.62;86.40
44198;BME280;30157;55.512;37.764;2023-02-28T00:59:58;100383.78;;;-9.88;86.21
44198;BME280;30157;55.512;37.764;2023-02-28T01:02:23;100433.16;;;-9.49;85.88
44198;BME280;30157;55.512;37.764;2023-02-28T01:04:51;100463.59;;;-9.25;85.85
44198;BME280;30157;55.512;37.764;2023-02-28T01:07:17;100459.59;;;-9.23;85.64
44198;BME280;30157;55.512;37.764;2023-02-28T01:09:43;100427.50;;;-9.36;85.54
44198;BME280;30157;55.512;37.764;2023-02-28T01:12:08;100470.56;;;-9.12;85.55
44198;BME280;30157;55.512;37.764;2023-02-28T01:14:34;100431.91;;;-9.33;85.57
44198;BME280;30157;55.512;37.764;2023-02-28T01:17:00;100433.59;;;-9.23;85.74
44198;BME280;30157;55.512;37.764;2023-02-28T01:19:26;100343.72;;;-9.76;85.84
44198;BME280;30157;55.512;37.764;2023-02-28T01:21:52;100427.66;;;-9.24;85.92
44198;BME280;30157;55.512;37.764;2023-02-28T01:24:17;100455.34;;;-9.14;86.17
44198;BME280;30157;55.512;37.764;2023-02-28T01:26:44;100459.25;;;-9.07;85.95
44198;BME280;30157;55.512;37.764;2023-02-28T01:29:10;100306.25;;;-9.93;85.94
44198;BME280;30157;55.512;37.764;2023-02-28T01:31:35;100451.94;;;-9.14;85.70
44198;BME280;30157;55.512;37.764;2023-02-28T01:34:01;100291.00;;;-10.16;85.69
44198;BME280;30157;55.512;37.764;2023-02-28T01:36:29;100432.31;;;-9.29;86.00
44198;BME280;30157;55.512;37.764;2023-02-28T01:38:55;100335.06;;;-9.80;86.16
44198;BME280;30157;55.512;37.764;2023-02-28T01:41:27;100323.25;;;-9.81;86.05
44198;BME280;30157;55.512;37.764;2023-02-28T01:43:56;100441.75;;;-9.16;85.93
44198;BME280;30157;55.512;37.764;2023-02-28T01:46:22;100318.72;;;-9.85;86.06
44198;BME280;30157;55.512;37.764;2023-02-28T01:49:05;100304.75;;;-9.91;86.22
44198;BME280;30157;55.512;37.764;2023-02-28T01:51:43;100410.19;;;-9.33;86.32
44198;BME280;30157;55.512;37.764;2023-02-28T01:54:21;100420.50;;;-9.19;86.52
44198;BME280;30157;55.512;37.764;2023-02-28T01:56:54;100367.16;;;-9.46;86.45
44198;BME280;30157;55.512;37.764;2023-02-28T01:59:27;100402.50;;;-9.24;86.39
44198;BME280;30157;55.512;37.764;2023-02-28T02:01:55;100392.44;;;-9.34;86.21
44198;BME280;30157;55.512;37.764;2023-02-28T02:04:23;100400.50;;;-9.28;86.38
44198;BME280;30157;55.512;37.764;2023-02-28T02:06:52;100315.75;;;-9.70;86.16
44198;BME280;30157;55.512;37.764;2023-02-28T02:09:18;100371.31;;;-9.36;86.63
44198;BME280;30157;55.512;37.764;2023-02-28T02:11:44;100397.50;;;-9.14;86.72
44198;BME280;30157;55.512;37.764;2023-02-28T02:14:40;100395.97;;;-9.12;86.79
44198;BME280;30157;55.512;37.764;2023-02-28T02:17:34;100258.19;;;-9.88;86.57
44198;BME280;30157;55.512;37.764;2023-02-28T02:25:45;100340.53;;;-9.34;87.12
44198;BME280;30157;55.512;37.764;2023-02-28T02:28:26;100373.34;;;-9.12;87.14
44198;BME280;30157;55.512;37.764;2023-02-28T02:39:05;100271.88;;;-9.43;86.60
44198;BME280;30157;55.512;37.764;2023-02-28T02:44:35;100346.94;;;-8.96;86.48
44198;BME280;30157;55.512;37.764;2023-02-28T02:47:10;100310.72;;;-9.19;86.71
44198;BME280;30157;55.512;37.764;2023-02-28T02:49:42;100345.44;;;-9.04;86.86
44198;BME280;30157;55.512;37.764;2023-02-28T02:52:12;100334.47;;;-9.05;86.84
44198;BME280;30157;55.512;37.764;2023-02-28T02:54:48;100199.13;;;-9.93;86.74
44198;BME280;30157;55.512;37.764;2023-02-28T02:57:25;100144.09;;;-10.31;86.84
44198;BME280;30157;55.512;37.764;2023-02-28T02:59:56;100344.69;;;-9.14;87.39
44198;BME280;30157;55.512;37.764;2023-02-28T03:02:26;100236.06;;;-9.82;87.04
44198;BME280;30157;55.512;37.764;2023-02-28T03:05:02;100332.34;;;-9.21;87.38
44198;BME280;30157;55.512;37.764;2023-02-28T03:07:30;100316.25;;;-9.23;87.11
44198;BME280;30157;55.512;37.764;2023-02-28T03:09:57;100206.91;;;-10.00;87.31
44198;BME280;30157;55.512;37.764;2023-02-28T03:12:32;100140.50;;;-10.35;87.81
44198;BME280;30157;55.512;37.764;2023-02-28T03:18:04;100253.53;;;-9.73;88.02
44198;BME280;30157;55.512;37.764;2023-02-28T03:23:19;100248.13;;;-9.77;88.09
44198;BME280;30157;55.512;37.764;2023-02-28T03:26:00;100282.72;;;-9.54;88.01
44198;BME280;30157;55.512;37.764;2023-02-28T03:34:34;100216.31;;;-9.98;87.77
44198;BME280;30157;55.512;37.764;2023-02-28T03:37:08;100278.81;;;-9.61;88.21
44198;BME280;30157;55.512;37.764;2023-02-28T03:39:41;100265.22;;;-9.63;88.14
44198;BME280;30157;55.512;37.764;2023-02-28T03:42:20;100108.09;;;-10.62;88.20
44198;BME280;30157;55.512;37.764;2023-02-28T03:44:55;100249.38;;;-9.72;88.72
44198;BME280;30157;55.512;37.764;2023-02-28T03:47:29;100182.91;;;-10.17;88.43
44198;BME280;30157;55.512;37.764;2023-02-28T03:50:15;100206.28;;;-9.98;88.78
44198;BME280;30157;55.512;37.764;2023-02-28T03:52:55;100241.72;;;-9.74;88.89
44198;BME280;30157;55.512;37.764;2023-02-28T03:55:30;99923.34;;;-11.63;88.59
44198;BME280;30157;55.512;37.764;2023-02-28T04:01:24;100188.69;;;-9.98;89.14
44198;BME280;30157;55.512;37.764;2023-02-28T04:03:52;100206.69;;;-9.93;89.00
44198;BME280;30157;55.512;37.764;2023-02-28T04:06:20;100047.59;;;-10.76;88.74
44198;BME280;30157;55.512;37.764;2023-02-28T04:08:46;99960.91;;;-11.24;88.63
44198;BME280;30157;55.512;37.764;2023-02-28T04:13:46;100081.88;;;-10.56;88.54
44198;BME280;30157;55.512;37.764;2023-02-28T04:16:12;100203.03;;;-9.76;88.40
44198;BME280;30157;55.512;37.764;2023-02-28T04:18:39;100205.69;;;-9.74;88.66
44198;BME280;30157;55.512;37.764;2023-02-28T04:21:06;100040.22;;;-10.64;88.19
44198;BME280;30157;55.512;37.764;2023-02-28T04:23:32;100068.84;;;-10.52;88.45
44198;BME280;30157;55.512;37.764;2023-02-28T04:25:58;100081.00;;;-10.36;88.31
44198;BME280;30157;55.512;37.764;2023-02-28T04:28:25;100185.81;;;-9.71;88.01
44198;BME280;30157;55.512;37.764;2023-02-28T04:30:59;99993.03;;;-10.78;87.76
44198;BME280;30157;55.512;37.764;2023-02-28T04:33:26;100185.06;;;-9.70;88.07
44198;BME280;30157;55.512;37.764;2023-02-28T04:36:06;100170.13;;;-9.69;87.70
44198;BME280;30157;55.512;37.764;2023-02-28T04:38:38;100173.38;;;-9.70;87.80
44198;BME280;30157;55.512;37.764;2023-02-28T04:41:05;99999.22;;;-10.65;87.48
44198;BME280;30157;55.512;37.764;2023-02-28T04:43:31;100167.59;;;-9.69;87.12
44198;BME280;30157;55.512;37.764;2023-02-28T04:45:58;100039.72;;;-10.39;86.96
44198;BME280;30157;55.512;37.764;2023-02-28T04:48:28;100167.97;;;-9.54;86.95
44198;BME280;30157;55.512;37.764;2023-02-28T04:50:54;100133.63;;;-9.33;86.73
44198;BME280;30157;55.512;37.764;2023-02-28T04:53:21;100130.31;;;-8.67;84.32
44198;BME280;30157;55.512;37.764;2023-02-28T04:55:46;100039.81;;;-8.65;81.56
44198;BME280;30157;55.512;37.764;2023-02-28T04:58:13;100119.84;;;-7.69;80.53
44198;BME280;30157;55.512;37.764;2023-02-28T05:00:39;100123.38;;;-7.32;78.66
44198;BME280;30157;55.512;37.764;2023-02-28T05:03:05;100087.94;;;-7.21;76.44
44198;BME280;30157;55.512;37.764;2023-02-28T05:05:30;100135.47;;;-6.79;75.48
44198;BME280;30157;55.512;37.764;2023-02-28T05:07:56;100107.56;;;-6.31;75.74
44198;BME280;30157;55.512;37.764;2023-02-28T05:10:22;100122.00;;;-6.03;73.55
44198;BME280;30157;55.512;37.764;2023-02-28T05:12:47;100126.66;;;-6.10;71.30
44198;BME280;30157;55.512;37.764;2023-02-28T05:15:15;100003.31;;;-6.54;72.07
44198;BME280;30157;55.512;37.764;2023-02-28T05:17:41;100099.47;;;-5.74;70.93
44198;BME280;30157;55.512;37.764;2023-02-28T05:20:08;100070.19;;;-5.83;68.98
44198;BME280;30157;55.512;37.764;2023-02-28T05:22:39;99960.72;;;-6.09;69.47
44198;BME280;30157;55.512;37.764;2023-02-28T05:25:06;99995.59;;;-5.90;67.49
44198;BME280;30157;55.512;37.764;2023-02-28T05:27:32;100065.06;;;-4.90;66.24
44198;BME280;30157;55.512;37.764;2023-02-28T05:29:58;100099.59;;;-4.77;66.34
44198;BME280;30157;55.512;37.764;2023-02-28T05:32:24;100078.56;;;-4.32;66.14
44198;BME280;30157;55.512;37.764;2023-02-28T05:34:53;100068.13;;;-3.94;65.29
44198;BME280;30157;55.512;37.764;2023-02-28T05:37:19;100035.22;;;-4.52;63.20
44198;BME280;30157;55.512;37.764;2023-02-28T05:39:44;100047.31;;;-4.18;61.60
44198;BME280;30157;55.512;37.764;2023-02-28T05:42:12;100065.50;;;-4.10;61.88
44198;BME280;30157;55.512;37.764;2023-02-28T05:44:38;100046.22;;;-3.47;59.84
44198;BME280;30157;55.512;37.764;2023-02-28T05:47:04;100029.63;;;-3.25;60.73
44198;BME280;30157;55.512;37.764;2023-02-28T05:49:32;100036.97;;;-2.65;58.42
44198;BME280;30157;55.512;37.764;2023-02-28T05:51:57;100025.22;;;-2.63;58.22
44198;BME280;30157;55.512;37.764;2023-02-28T05:54:23;99929.19;;;-3.99;58.37
44198;BME280;30157;55.512;37.764;2023-02-28T05:56:48;100015.31;;;-2.92;58.52
44198;BME280;30157;55.512;37.764;2023-02-28T05:59:14;99950.31;;;-2.88;57.63
44198;BME280;30157;55.512;37.764;2023-02-28T06:01:45;100003.69;;;-3.03;57.49
44198;BME280;30157;55.512;37.764;2023-02-28T06:04:15;99871.81;;;-3.16;57.47
44198;BME280;30157;55.512;37.764;2023-02-28T06:06:47;99994.13;;;-2.07;56.02
44198;BME280;30157;55.512;37.764;2023-02-28T06:09:13;99985.34;;;-1.95;55.61
44198;BME280;30157;55.512;37.764;2023-02-28T06:11:39;99903.00;;;-1.97;54.24
44198;BME280;30157;55.512;37.764;2023-02-28T06:14:05;99972.69;;;-2.12;53.16
44198;BME280;30157;55.512;37.764;2023-02-28T06:16:32;99954.97;;;-1.56;53.77
44198;BME280;30157;55.512;37.764;2023-02-28T06:19:00;99919.41;;;-0.96;51.76
44198;BME280;30157;55.512;37.764;2023-02-28T06:21:26;99946.81;;;-1.29;51.06
44198;BME280;30157;55.512;37.764;2023-02-28T06:23:56;99954.41;;;-1.87;52.91
44198;BME280;30157;55.512;37.764;2023-02-28T06:26:22;99954.50;;;-1.47;52.71
44198;BME280;30157;55.512;37.764;2023-02-28T06:28:48;99945.69;;;-1.16;50.78
44198;BME280;30157;55.512;37.764;2023-02-28T06:31:15;99910.31;;;-1.10;49.52
44198;BME280;30157;55.512;37.764;2023-02-28T06:33:42;99750.88;;;-1.46;49.72
44198;BME280;30157;55.512;37.764;2023-02-28T06:36:09;99907.25;;;0.03;49.09
44198;BME280;30157;55.512;37.764;2023-02-28T06:38:36;99905.75;;;0.53;48.33
44198;BME280;30157;55.512;37.764;2023-02-28T06:41:03;99885.34;;;0.30;48.29
44198;BME280;30157;55.512;37.764;2023-02-28T06:43:31;99797.69;;;-0.15;47.57
44198;BME280;30157;55.512;37.764;2023-02-28T06:45:58;99895.25;;;0.68;47.05
44198;BME280;30157;55.512;37.764;2023-02-28T06:48:26;99782.44;;;0.81;46.35
44198;BME280;30157;55.512;37.764;2023-02-28T06:50:51;99880.31;;;1.56;43.75
44198;BME280;30157;55.512;37.764;2023-02-28T06:53:17;99880.44;;;1.87;43.15
44198;BME280;30157;55.512;37.764;2023-02-28T06:55:43;99866.41;;;0.96;44.10
44198;BME280;30157;55.512;37.764;2023-02-28T06:58:08;99871.09;;;0.60;44.34
44198;BME280;30157;55.512;37.764;2023-02-28T07:00:43;99881.72;;;0.48;44.95
44198;BME280;30157;55.512;37.764;2023-02-28T07:03:10;99876.13;;;1.31;43.97
44198;BME280;30157;55.512;37.764;2023-02-28T07:05:37;99861.41;;;0.75;43.95
44198;BME280;30157;55.512;37.764;2023-02-28T07:08:03;99856.97;;;0.70;43.28
44198;BME280;30157;55.512;37.764;2023-02-28T07:10:30;99853.66;;;1.22;43.43
44198;BME280;30157;55.512;37.764;2023-02-28T07:12:55;99835.22;;;1.58;42.47
44198;BME280;30157;55.512;37.764;2023-02-28T07:15:21;99801.03;;;0.77;43.32
44198;BME280;30157;55.512;37.764;2023-02-28T07:17:47;99817.81;;;0.22;43.94
44198;BME280;30157;55.512;37.764;2023-02-28T07:20:12;99802.72;;;-0.40;45.93
44198;BME280;30157;55.512;37.764;2023-02-28T07:22:38;99795.56;;;-1.33;47.94
44198;BME280;30157;55.512;37.764;2023-02-28T07:25:05;99746.88;;;-2.19;49.33
44198;BME280;30157;55.512;37.764;2023-02-28T07:27:31;99795.44;;;-1.95;50.08
44198;BME280;30157;55.512;37.764;2023-02-28T07:29:57;99778.09;;;-1.64;49.96
44198;BME280;30157;55.512;37.764;2023-02-28T07:32:23;99740.53;;;-2.09;50.47
44198;BME280;30157;55.512;37.764;2023-02-28T07:34:48;99703.28;;;-2.46;50.85
44198;BME280;30157;55.512;37.764;2023-02-28T07:37:14;99791.00;;;-2.37;51.86
44198;BME280;30157;55.512;37.764;2023-02-28T07:39:40;99785.69;;;-2.59;53.07
44198;BME280;30157;55.512;37.764;2023-02-28T07:42:09;99766.50;;;-2.34;53.34
44198;BME280;30157;55.512;37.764;2023-02-28T07:44:41;99682.84;;;-3.04;53.51
44198;BME280;30157;55.512;37.764;2023-02-28T07:47:09;99740.66;;;-2.98;54.75
44198;BME280;30157;55.512;37.764;2023-02-28T07:49:38;99770.94;;;-2.84;54.95
44198;BME280;30157;55.512;37.764;2023-02-28T07:52:05;99778.78;;;-2.98;55.64
44198;BME280;30157;55.512;37.764;2023-02-28T07:54:32;99772.53;;;-3.05;56.64
44198;BME280;30157;55.512;37.764;2023-02-28T07:56:57;99757.34;;;-3.03;56.59
44198;BME280;30157;55.512;37.764;2023-02-28T07:59:23;99752.78;;;-2.92;56.60
44198;BME280;30157;55.512;37.764;2023-02-28T08:01:49;99744.81;;;-3.00;57.07
44198;BME280;30157;55.512;37.764;2023-02-28T08:04:18;99751.94;;;-2.93;56.14
44198;BME280;30157;55.512;37.764;2023-02-28T08:06:46;99741.84;;;-3.09;57.78
44198;BME280;30157;55.512;37.764;2023-02-28T08:09:12;99631.16;;;-3.58;57.78
44198;BME280;30157;55.512;37.764;2023-02-28T08:11:38;99519.53;;;-3.94;57.38
44198;BME280;30157;55.512;37.764;2023-02-28T08:14:04;99697.97;;;-1.94;54.93
44198;BME280;30157;55.512;37.764;2023-02-28T08:16:29;99618.72;;;-2.03;55.10
44198;BME280;30157;55.512;37.764;2023-02-28T08:18:55;99716.56;;;-1.34;54.44
44198;BME280;30157;55.512;37.764;2023-02-28T08:21:21;99710.28;;;-0.79;53.54
44198;BME280;30157;55.512;37.764;2023-02-28T08:23:48;99703.78;;;-0.26;52.15
44198;BME280;30157;55.512;37.764;2023-02-28T08:26:15;99634.31;;;0.31;49.95
44198;BME280;30157;55.512;37.764;2023-02-28T08:28:41;99677.63;;;1.07;49.40
44198;BME280;30157;55.512;37.764;2023-02-28T08:31:11;99696.50;;;1.11;49.21
44198;BME280;30157;55.512;37.764;2023-02-28T08:33:39;99657.13;;;1.06;48.29
44198;BME280;30157;55.512;37.764;2023-02-28T08:36:06;99689.47;;;0.02;51.65
44198;BME280;30157;55.512;37.764;2023-02-28T08:38:32;99679.16;;;-0.71;53.36
44198;BME280;30157;55.512;37.764;2023-02-28T08:41:05;99558.03;;;-1.73;53.82
44198;BME280;30157;55.512;37.764;2023-02-28T08:43:33;99683.69;;;-1.28;55.36
44198;BME280;30157;55.512;37.764;2023-02-28T08:45:59;99636.44;;;-1.64;55.81
44198;BME280;30157;55.512;37.764;2023-02-28T08:48:27;99668.13;;;-1.57;56.55
44198;BME280;30157;55.512;37.764;2023-02-28T08:51:02;99624.34;;;-1.70;56.69
44198;BME280;30157;55.512;37.764;2023-02-28T08:53:28;99668.25;;;-1.33;56.75
44198;BME280;30157;55.512;37.764;2023-02-28T08:56:05;99649.53;;;-1.12;56.43
44198;BME280;30157;55.512;37.764;2023-02-28T08:58:32;99645.38;;;-1.53;57.35
44198;BME280;30157;55.512;37.764;2023-02-28T09:00:58;99565.41;;;-1.58;56.16
44198;BME280;30157;55.512;37.764;2023-02-28T09:03:24;99557.78;;;-1.58;56.92
44198;BME280;30157;55.512;37.764;2023-02-28T09:05:58;99622.03;;;-0.98;56.98
44198;BME280;30157;55.512;37.764;2023-02-28T09:08:24;99524.88;;;-1.53;56.67
44198;BME280;30157;55.512;37.764;2023-02-28T09:10:51;99665.19;;;-1.03;57.13
44198;BME280;30157;55.512;37.764;2023-02-28T09:13:18;99559.22;;;-2.07;57.99
44198;BME280;30157;55.512;37.764;2023-02-28T09:15:44;99626.47;;;-2.00;58.81
44198;BME280;30157;55.512;37.764;2023-02-28T09:18:10;99656.03;;;-1.82;59.53
44198;BME280;30157;55.512;37.764;2023-02-28T09:20:40;99637.59;;;-1.98;59.99
44198;BME280;30157;55.512;37.764;2023-02-28T09:23:08;99618.44;;;-2.09;60.73
44198;BME280;30157;55.512;37.764;2023-02-28T09:25:34;99646.13;;;-2.15;62.03
44198;BME280;30157;55.512;37.764;2023-02-28T09:28:00;99631.03;;;-2.32;63.66
44198;BME280;30157;55.512;37.764;2023-02-28T09:30:26;99546.41;;;-2.88;64.18
44198;BME280;30157;55.512;37.764;2023-02-28T09:32:52;99610.63;;;-2.53;65.16
44198;BME280;30157;55.512;37.764;2023-02-28T09:35:23;99586.16;;;-2.71;65.16
44198;BME280;30157;55.512;37.764;2023-02-28T09:37:50;99593.34;;;-2.60;65.32
44198;BME280;30157;55.512;37.764;2023-02-28T09:40:18;99574.38;;;-2.68;65.32
44198;BME280;30157;55.512;37.764;2023-02-28T09:42:46;99600.31;;;-2.56;65.73
44198;BME280;30157;55.512;37.764;2023-02-28T09:45:30;99549.22;;;-2.82;65.97
44198;BME280;30157;55.512;37.764;2023-02-28T09:48:02;99583.06;;;-2.63;66.80
44198;BME280;30157;55.512;37.764;2023-02-28T09:50:34;99556.97;;;-2.79;66.42
44198;BME280;30157;55.512;37.764;2023-02-28T09:53:25;99584.81;;;-2.62;67.72
44198;BME280;30157;55.512;37.764;2023-02-28T09:55:58;99566.44;;;-2.94;69.01
44198;BME280;30157;55.512;37.764;2023-02-28T09:58:44;99580.53;;;-3.01;69.42
44198;BME280;30157;55.512;37.764;2023-02-28T10:04:00;99608.13;;;-2.71;68.88
44198;BME280;30157;55.512;37.764;2023-02-28T10:06:33;99584.00;;;-2.61;68.50
44198;BME280;30157;55.512;37.764;2023-02-28T10:09:06;99594.97;;;-2.43;68.30
44198;BME280;30157;55.512;37.764;2023-02-28T10:11:37;99584.28;;;-2.55;68.76
44198;BME280;30157;55.512;37.764;2023-02-28T10:14:17;99563.75;;;-2.60;69.24
44198;BME280;30157;55.512;37.764;2023-02-28T10:16:47;99559.94;;;-2.50;69.04
44198;BME280;30157;55.512;37.764;2023-02-28T10:19:26;99553.09;;;-2.51;69.05
44198;BME280;30157;55.512;37.764;2023-02-28T10:22:05;99451.22;;;-3.16;69.28
44198;BME280;30157;55.512;37.764;2023-02-28T10:24:43;99440.84;;;-3.21;69.44
44198;BME280;30157;55.512;37.764;2023-02-28T10:27:17;99520.47;;;-2.61;69.51
44198;BME280;30157;55.512;37.764;2023-02-28T10:29:46;99537.44;;;-2.41;68.92
44198;BME280;30157;55.512;37.764;2023-02-28T10:32:17;99541.91;;;-2.35;68.52
44198;BME280;30157;55.512;37.764;2023-02-28T10:34:44;99428.91;;;-3.04;68.97
44198;BME280;30157;55.512;37.764;2023-02-28T10:37:11;99525.34;;;-2.46;68.96
44198;BME280;30157;55.512;37.764;2023-02-28T10:39:41;99515.19;;;-2.46;68.80
44198;BME280;30157;55.512;37.764;2023-02-28T10:42:23;99504.41;;;-2.41;69.08
44198;BME280;30157;55.512;37.764;2023-02-28T10:45:15;99457.81;;;-2.80;69.40
44198;BME280;30157;55.512;37.764;2023-02-28T10:50:44;99517.78;;;-2.45;69.63
44198;BME280;30157;55.512;37.764;2023-02-28T11:03:48;99373.72;;;-3.27;69.87
44198;BME280;30157;55.512;37.764;2023-02-28T11:06:23;99464.94;;;-2.73;70.20
44198;BME280;30157;55.512;37.764;2023-02-28T11:08:56;99502.59;;;-2.63;70.47
44198;BME280;30157;55.512;37.764;2023-02-28T11:11:25;99394.38;;;-3.19;70.65
44198;BME280;30157;55.512;37.764;2023-02-28T11:13:55;99494.59;;;-2.53;70.44
44198;BME280;30157;55.512;37.764;2023-02-28T11:16:34;99480.63;;;-2.62;70.57
44198;BME280;30157;55.512;37.764;2023-02-28T11:19:01;99482.34;;;-2.61;71.00
44198;BME280;30157;55.512;37.764;2023-02-28T11:21:34;99465.50;;;-2.59;71.03
44198;BME280;30157;55.512;37.764;2023-02-28T11:24:12;99427.09;;;-2.87;70.92
44198;BME280;30157;55.512;37.764;2023-02-28T11:26:46;99479.22;;;-2.56;70.92
44198;BME280;30157;55.512;37.764;2023-02-28T11:29:21;99434.75;;;-2.65;71.20
44198;BME280;30157;55.512;37.764;2023-02-28T11:34:28;99456.75;;;-2.66;71.19
44198;BME280;30157;55.512;37.764;2023-02-28T11:36:55;99464.03;;;-2.74;71.53
44198;BME280;30157;55.512;37.764;2023-02-28T11:39:23;99465.78;;;-2.73;72.14
44198;BME280;30157;55.512;37.764;2023-02-28T11:42:11;99453.16;;;-2.71;72.32
44198;BME280;30157;55.512;37.764;2023-02-28T11:44:49;99458.84;;;-2.77;72.35
44198;BME280;30157;55.512;37.764;2023-02-28T11:52:56;99457.22;;;-2.75;72.98
44198;BME280;30157;55.512;37.764;2023-02-28T11:55:32;99462.06;;;-2.81;73.68
44198;BME280;30157;55.512;37.764;2023-02-28T12:00:40;99454.97;;;-2.88;74.48
44198;BME280;30157;55.512;37.764;2023-02-28T12:06:40;99439.06;;;-2.84;75.19
44198;BME280;30157;55.512;37.764;2023-02-28T12:11:52;99389.34;;;-3.18;76.14
44198;BME280;30157;55.512;37.764;2023-02-28T12:20:18;99309.84;;;-3.58;77.18
44198;BME280;30157;55.512;37.764;2023-02-28T12:25:41;99293.72;;;-3.58;77.08
44198;BME280;30157;55.512;37.764;2023-02-28T12:28:13;99409.31;;;-2.87;77.52
44198;BME280;30157;55.512;37.764;2023-02-28T12:30:55;99400.97;;;-2.84;77.25
44198;BME280;30157;55.512;37.764;2023-02-28T12:33:26;99376.72;;;-2.97;76.79
44198;BME280;30157;55.512;37.764;2023-02-28T12:35:58;99412.50;;;-2.71;77.19
44198;BME280;30157;55.512;37.764;2023-02-28T12:38:38;99370.03;;;-2.95;77.15
44198;BME280;30157;55.512;37.764;2023-02-28T12:43:47;99363.50;;;-3.09;78.09
44198;BME280;30157;55.512;37.764;2023-02-28T12:49:01;99400.06;;;-2.84;78.58
44198;BME280;30157;55.512;37.764;2023-02-28T12:51:30;99246.00;;;-3.67;78.72
44198;BME280;30157;55.512;37.764;2023-02-28T12:57:12;99375.28;;;-2.90;79.41
44198;BME280;30157;55.512;37.764;2023-02-28T12:59:53;99338.16;;;-3.08;79.15
44198;BME280;30157;55.512;37.764;2023-02-28T13:11:01;99353.72;;;-3.00;80.92
44198;BME280;30157;55.512;37.764;2023-02-28T13:13:29;99335.91;;;-3.01;80.15
44198;BME280;30157;55.512;37.764;2023-02-28T13:16:10;99335.56;;;-3.09;81.28
44198;BME280;30157;55.512;37.764;2023-02-28T13:18:38;99355.38;;;-3.00;81.97
44198;BME280;30157;55.512;37.764;2023-02-28T13:21:07;99262.94;;;-3.46;82.24
44198;BME280;30157;55.512;37.764;2023-02-28T13:23:58;99280.34;;;-3.34;82.93
44198;BME280;30157;55.512;37.764;2023-02-28T13:29:01;99325.75;;;-3.01;82.87
44198;BME280;30157;55.512;37.764;2023-02-28T13:31:27;99273.53;;;-3.35;84.20
44198;BME280;30157;55.512;37.764;2023-02-28T13:36:32;99325.75;;;-3.01;84.21
44198;BME280;30157;55.512;37.764;2023-02-28T13:38:59;99309.19;;;-3.13;83.68
44198;BME280;30157;55.512;37.764;2023-02-28T13:47:16;99126.13;;;-4.23;84.17
44198;BME280;30157;55.512;37.764;2023-02-28T13:49:35;99317.84;;;-3.08;84.13
44198;BME280;30157;55.512;37.764;2023-02-28T14:00:42;99296.88;;;-3.04;84.10
44198;BME280;30157;55.512;37.764;2023-02-28T14:05:46;99276.06;;;-3.16;83.98
44198;BME280;30157;55.512;37.764;2023-02-28T14:08:22;99271.53;;;-3.02;83.79
44198;BME280;30157;55.512;37.764;2023-02-28T14:10:49;99273.34;;;-2.99;83.66
44198;BME280;30157;55.512;37.764;2023-02-28T14:16:00;99258.50;;;-3.10;84.03
44198;BME280;30157;55.512;37.764;2023-02-28T14:18:32;99278.66;;;-2.93;83.45
44198;BME280;30157;55.512;37.764;2023-02-28T14:21:21;99282.28;;;-2.88;83.51
44198;BME280;30157;55.512;37.764;2023-02-28T14:31:45;99250.69;;;-2.95;83.65
44198;BME280;30157;55.512;37.764;2023-02-28T14:37:03;99237.78;;;-2.99;83.81
44198;BME280;30157;55.512;37.764;2023-02-28T14:39:30;99238.03;;;-2.93;84.16
44198;BME280;30157;55.512;37.764;2023-02-28T14:41:57;99254.38;;;-2.87;84.31
44198;BME280;30157;55.512;37.764;2023-02-28T14:44:28;99249.31;;;-2.87;84.86
44198;BME280;30157;55.512;37.764;2023-02-28T14:46:56;99150.66;;;-3.41;84.91
44198;BME280;30157;55.512;37.764;2023-02-28T14:49:48;99248.91;;;-2.75;85.07
44198;BME280;30157;55.512;37.764;2023-02-28T14:54:43;99239.09;;;-2.88;85.95
44198;BME280;30157;55.512;37.764;2023-02-28T14:57:50;99247.88;;;-2.80;86.44
44198;BME280;30157;55.512;37.764;2023-02-28T15:00:28;99245.34;;;-2.80;86.68
44198;BME280;30157;55.512;37.764;2023-02-28T15:02:55;99243.53;;;-2.82;87.32
44198;BME280;30157;55.512;37.764;2023-02-28T15:05:26;99143.13;;;-3.39;87.87
44198;BME280;30157;55.512;37.764;2023-02-28T15:08:10;99219.53;;;-2.91;88.52
44198;BME280;30157;55.512;37.764;2023-02-28T15:10:38;99004.50;;;-4.23;88.95